Hovedside
METAR-TAF:

METAR-TAF

Lufthavner :

Chhatrapati Shivaji internasjonale lufthavn

Mumbai, India

breddegrad: 19-07N, lengdegrad: 072-51E, høyde over havet: 8 m

Gjeldene værobservasjon

Denne rapporten ble laget for 30 minutter siden, klokken 19:00 UTC
Vind 5 kt fra Nord
Temperatur 29°C
Luftfuktighet 70%
Trykk 1012 hPa
Sikt: 2500 m
Spredte skyer i en høyde av 10000 ft
dis

METAR: VABB 151900Z 35005KT 2500 HZ SCT100 29/23 Q1012 NOSIG

Tid: 01:00 (19:30 UTC)

Varsel

Denne rapporten ble laget for 2 timer og 30 minutter siden, klokken 17:00 UTC
Varsel gyldig fra 15. klokken 18 UTC til 16. klokken 03 UTC
Vind 4 kt fra Nordvest
Sikt: 2500 m
Spredte skyer i en høyde av 10000 ft
dis
Blir
fra 15. klokken 22 UTC til 15. klokken 24 UTC
Vind 3 kt fra Sørøst
Blir
fra 16. klokken 01 UTC til 16. klokken 03 UTC
Vind 5 kt fra Øst-sørøst

TAF: VABB 151700Z 1518/1603 31004KT 2500 HZ SCT100 BECMG 1522/1524 13003KT BECMG 1601/1603 12005KT

Værobservasjoner og værvarsel for over 4000 flyplasser (METAR- og TAF-rapporter).

Tilgjengelige stasjoner er representert av de røde og gule prikkene på kartet.

Hold musepekeren over prikken for å se navnet på stasjonen.

Klikk så for å se værobservasjoner og -varsler.

For å forandre kartet kan du klikke på den grønne knappen med svart kryss for å zoome inn, på den grønne knappen med strek for å zoome ut, eller på de grønne pilene for å se tilstøtende kart.


METAR-TAF: